Time;durP1;ratioP1;P1;durP2;ratioP2;P2;SDS_P1;SDS_P2;PMS_P1;PMS_P2;Temp;Humidity;BMP_temperature;BMP_pressure;BME280_temperature;BME280_humidity;BME280_pressure;Samples;Min_cycle;Max_cycle;Signal;HPM_P1;HPM_P2
2023/11/16 00:02:05;;;;;;;4.40;2.20;;;7.10;65.50;;;;;;5099584;28;20210;-53
2023/11/16 00:04:33;;;;;;;2.50;2.23;;;7.10;65.50;;;;;;5107333;28;20288;-55
2023/11/16 00:06:59;;;;;;;3.13;2.83;;;7.10;65.50;;;;;;5105930;28;20203;-56
2023/11/16 00:09:27;;;;;;;2.67;2.33;;;7.10;65.50;;;;;;5113367;28;20285;-55
2023/11/16 00:11:54;;;;;;;2.40;2.20;;;7.10;65.50;;;;;;5102465;28;20207;-58
2023/11/16 00:14:20;;;;;;;3.00;2.10;;;7.10;65.60;;;;;;5109394;28;20711;-56
2023/11/16 00:16:46;;;;;;;2.50;2.30;;;7.00;65.60;;;;;;5102473;28;20722;-55
2023/11/16 00:19:15;;;;;;;4.30;2.27;;;7.10;65.50;;;;;;5105999;28;20690;-53
2023/11/16 00:21:42;;;;;;;2.70;2.50;;;7.10;65.50;;;;;;5113913;28;20545;-53
2023/11/16 00:24:10;;;;;;;3.10;2.10;;;7.10;66.20;;;;;;5111711;28;20203;-58
2023/11/16 00:26:37;;;;;;;3.87;2.20;;;7.10;65.50;;;;;;5103549;28;20713;-50
2023/11/16 00:29:06;;;;;;;3.57;2.50;;;7.10;65.30;;;;;;5108532;28;20296;-58
2023/11/16 00:31:32;;;;;;;2.67;2.20;;;7.10;65.10;;;;;;5099158;28;20254;-57
2023/11/16 00:33:59;;;;;;;2.83;2.37;;;7.00;65.40;;;;;;5109424;28;20210;-57
2023/11/16 00:36:25;;;;;;;3.80;2.10;;;7.00;65.30;;;;;;5107049;28;21368;-54
2023/11/16 00:38:52;;;;;;;2.03;1.90;;;7.00;65.40;;;;;;5110185;28;20284;-56
2023/11/16 00:41:18;;;;;;;3.87;2.27;;;7.00;65.20;;;;;;5111165;28;20204;-55
2023/11/16 00:43:45;;;;;;;2.80;2.37;;;7.00;65.40;;;;;;5113189;28;20212;-56
2023/11/16 00:46:12;;;;;;;2.57;1.87;;;7.00;65.30;;;;;;5104900;28;20220;-56
2023/11/16 00:48:39;;;;;;;3.10;2.30;;;7.00;65.00;;;;;;5103910;28;20211;-56
2023/11/16 00:51:05;;;;;;;3.27;2.10;;;7.00;65.20;;;;;;5111838;28;20633;-53
2023/11/16 00:53:32;;;;;;;3.20;2.30;;;7.00;65.30;;;;;;5106977;28;20598;-53
2023/11/16 00:55:59;;;;;;;3.87;2.17;;;6.90;65.20;;;;;;5112676;28;20231;-54
2023/11/16 00:58:25;;;;;;;3.90;2.23;;;6.90;65.20;;;;;;5108789;28;20202;-55
2023/11/16 01:00:52;;;;;;;2.37;1.83;;;6.90;65.30;;;;;;5107406;28;20498;-55
2023/11/16 01:03:19;;;;;;;2.20;2.00;;;6.90;65.30;;;;;;5110349;28;20236;-52
2023/11/16 01:05:46;;;;;;;2.60;2.23;;;7.00;65.40;;;;;;5105816;28;20294;-53
2023/11/16 01:08:12;;;;;;;3.13;2.53;;;7.00;65.40;;;;;;5110178;28;20213;-53
2023/11/16 01:10:43;;;;;;;4.27;2.37;;;7.00;65.30;;;;;;5101826;28;20295;-51
2023/11/16 01:13:10;;;;;;;2.20;2.00;;;7.10;64.90;;;;;;5102413;28;20219;-57
2023/11/16 01:15:38;;;;;;;2.00;1.80;;;7.10;65.20;;;;;;5091704;28;20276;-54
2023/11/16 01:18:06;;;;;;;4.40;2.43;;;7.10;64.50;;;;;;5107062;28;20211;-57
2023/11/16 01:20:35;;;;;;;1.87;1.77;;;7.10;64.20;;;;;;5110246;28;20215;-56
2023/11/16 01:23:09;;;;;;;3.70;2.10;;;7.20;64.40;;;;;;5106626;28;20605;-57
2023/11/16 01:25:38;;;;;;;3.47;1.70;;;7.20;64.30;;;;;;5112247;28;20282;-53
2023/11/16 01:28:05;;;;;;;3.63;2.13;;;7.20;63.60;;;;;;5102873;28;20199;-56
2023/11/16 01:30:31;;;;;;;3.13;1.70;;;7.20;63.30;;;;;;5106979;28;20645;-58
2023/11/16 01:32:58;;;;;;;3.63;2.10;;;7.30;63.80;;;;;;5104378;28;20200;-57
2023/11/16 01:35:25;;;;;;;2.30;2.10;;;7.20;63.50;;;;;;5110654;28;20316;-57
2023/11/16 01:37:52;;;;;;;3.27;2.13;;;7.20;63.80;;;;;;5104931;28;20256;-57
2023/11/16 01:40:18;;;;;;;3.20;1.80;;;7.30;63.70;;;;;;5105983;28;20293;-57
2023/11/16 01:42:45;;;;;;;6.30;2.60;;;7.30;63.60;;;;;;5104276;28;20286;-53
2023/11/16 01:45:13;;;;;;;3.17;2.23;;;7.30;63.20;;;;;;5103143;28;20743;-57
2023/11/16 01:47:40;;;;;;;3.60;2.00;;;7.30;63.40;;;;;;5096883;28;20209;-54
2023/11/16 01:50:06;;;;;;;1.90;1.80;;;7.20;63.60;;;;;;5111228;28;20630;-56
2023/11/16 01:52:32;;;;;;;2.80;2.60;;;7.20;63.40;;;;;;5108400;28;20613;-58
2023/11/16 01:54:59;;;;;;;3.17;1.90;;;7.20;63.60;;;;;;5105968;28;20661;-54
2023/11/16 01:57:25;;;;;;;2.30;2.10;;;7.10;63.90;;;;;;5106091;28;20236;-56
2023/11/16 01:59:52;;;;;;;3.83;2.30;;;7.10;64.10;;;;;;5106132;28;20209;-57
2023/11/16 02:02:18;;;;;;;3.23;2.20;;;7.10;63.70;;;;;;5098110;28;20279;-54
2023/11/16 02:04:45;;;;;;;1.87;1.77;;;7.10;63.80;;;;;;5104383;28;20224;-53
2023/11/16 02:07:11;;;;;;;2.00;1.80;;;7.10;63.20;;;;;;5111576;28;20895;-58
2023/11/16 02:09:38;;;;;;;2.30;2.00;;;7.10;63.10;;;;;;5109232;28;20685;-56
2023/11/16 02:12:04;;;;;;;3.50;2.10;;;7.10;64.00;;;;;;5106798;28;20650;-58
2023/11/16 02:14:31;;;;;;;3.07;1.60;;;7.10;63.50;;;;;;5107520;28;20640;-55
2023/11/16 02:16:57;;;;;;;2.53;1.90;;;7.00;63.30;;;;;;5106352;28;20653;-52
2023/11/16 02:19:23;;;;;;;3.63;2.40;;;7.00;63.20;;;;;;5107703;28;20327;-57
2023/11/16 02:21:50;;;;;;;2.37;2.17;;;7.10;63.20;;;;;;5099348;28;20233;-57
2023/11/16 02:24:16;;;;;;;2.00;1.80;;;7.10;63.30;;;;;;5102511;28;20244;-56
2023/11/16 02:26:43;;;;;;;3.30;1.77;;;7.10;62.80;;;;;;5100925;28;20204;-56
2023/11/16 02:29:10;;;;;;;3.10;1.90;;;7.20;62.90;;;;;;5111678;28;20206;-57
2023/11/16 02:31:36;;;;;;;2.50;1.70;;;7.10;62.90;;;;;;5103707;28;20731;-58
2023/11/16 02:34:03;;;;;;;2.83;2.57;;;7.10;63.10;;;;;;5106577;28;20650;-55
2023/11/16 02:36:29;;;;;;;1.93;1.80;;;7.10;62.70;;;;;;5096971;28;20256;-57
2023/11/16 02:38:56;;;;;;;3.77;1.83;;;7.10;63.10;;;;;;5109258;28;20249;-52
2023/11/16 02:41:22;;;;;;;2.33;1.77;;;7.10;62.50;;;;;;5099564;28;20213;-55
2023/11/16 02:43:49;;;;;;;2.00;1.83;;;7.10;62.80;;;;;;5108188;28;20212;-55
2023/11/16 02:46:17;;;;;;;2.80;2.00;;;7.20;62.80;;;;;;5103195;28;20286;-56
2023/11/16 02:48:43;;;;;;;3.53;1.87;;;7.20;63.00;;;;;;5107605;28;20224;-56
2023/11/16 02:51:10;;;;;;;3.40;1.90;;;7.10;63.20;;;;;;5111166;28;20297;-56
2023/11/16 02:53:37;;;;;;;2.50;1.63;;;7.10;63.50;;;;;;5101345;28;20285;-58
2023/11/16 02:56:04;;;;;;;3.60;2.30;;;7.10;63.10;;;;;;5109777;28;20227;-55
2023/11/16 02:58:30;;;;;;;4.23;2.07;;;7.10;63.40;;;;;;5105518;28;20217;-58
2023/11/16 03:00:56;;;;;;;2.00;1.80;;;7.00;63.10;;;;;;5113242;28;20215;-57
2023/11/16 03:03:23;;;;;;;2.70;1.93;;;7.00;63.30;;;;;;5115101;28;20211;-57
2023/11/16 03:05:50;;;;;;;3.70;2.00;;;7.00;63.60;;;;;;5100080;28;20221;-56
2023/11/16 03:08:17;;;;;;;4.57;2.10;;;6.90;63.90;;;;;;5107325;28;20207;-57
2023/11/16 03:10:44;;;;;;;2.00;1.67;;;6.90;64.20;;;;;;5107575;28;20313;-56
2023/11/16 03:13:12;;;;;;;2.90;2.10;;;6.90;63.70;;;;;;5113819;28;20222;-56
2023/11/16 03:15:38;;;;;;;2.27;2.07;;;6.90;63.70;;;;;;5105610;28;20308;-53
2023/11/16 03:18:05;;;;;;;1.87;1.77;;;6.80;64.30;;;;;;5103361;28;20590;-55
2023/11/16 03:20:32;;;;;;;3.03;2.40;;;6.80;64.30;;;;;;5115156;28;20295;-55
2023/11/16 03:22:58;;;;;;;3.07;1.80;;;6.80;63.70;;;;;;5110995;28;20272;-54
2023/11/16 03:25:26;;;;;;;2.00;1.90;;;6.80;64.00;;;;;;5106372;28;20313;-56
2023/11/16 03:27:52;;;;;;;2.13;1.90;;;6.80;63.70;;;;;;5111905;28;20205;-57
2023/11/16 03:30:20;;;;;;;3.47;1.97;;;6.80;63.80;;;;;;5114483;28;20290;-54
2023/11/16 03:32:46;;;;;;;3.30;2.33;;;6.80;63.80;;;;;;5102534;28;20201;-56
2023/11/16 03:35:15;;;;;;;2.77;1.90;;;6.80;63.20;;;;;;5104789;27;20335;-55
2023/11/16 03:37:41;;;;;;;1.83;1.73;;;6.80;63.70;;;;;;5105678;28;20224;-54
2023/11/16 03:40:08;;;;;;;3.10;2.20;;;6.80;63.50;;;;;;5109120;28;20289;-54
2023/11/16 03:42:34;;;;;;;1.97;1.87;;;6.70;64.10;;;;;;5113906;28;20773;-53
2023/11/16 03:45:01;;;;;;;3.00;2.50;;;6.70;64.10;;;;;;5114291;28;20666;-53
2023/11/16 03:47:28;;;;;;;2.37;2.00;;;6.80;63.40;;;;;;5106174;28;20219;-54
2023/11/16 03:49:54;;;;;;;3.20;2.10;;;6.80;63.20;;;;;;5109069;28;20206;-55
2023/11/16 03:52:21;;;;;;;2.93;1.60;;;6.80;63.20;;;;;;5103185;28;20206;-53
2023/11/16 03:54:48;;;;;;;2.23;1.80;;;6.80;63.60;;;;;;5107273;28;20309;-56
2023/11/16 03:57:14;;;;;;;2.13;2.00;;;6.70;63.30;;;;;;5103986;28;20237;-56
2023/11/16 03:59:40;;;;;;;3.37;2.27;;;6.70;63.60;;;;;;5111950;28;20293;-55
2023/11/16 04:02:08;;;;;;;2.30;2.10;;;6.70;62.90;;;;;;5108377;28;20647;-53
2023/11/16 04:04:34;;;;;;;1.90;1.80;;;6.70;62.80;;;;;;5113970;28;20229;-55
2023/11/16 04:07:01;;;;;;;3.80;2.33;;;6.80;62.90;;;;;;5105016;28;20674;-58
2023/11/16 04:09:28;;;;;;;4.70;2.30;;;6.70;63.30;;;;;;5100999;28;20210;-53
2023/11/16 04:11:54;;;;;;;3.43;2.00;;;6.60;63.20;;;;;;5105228;28;20206;-56
2023/11/16 04:14:20;;;;;;;2.53;1.80;;;6.60;63.30;;;;;;5111733;28;20272;-58
2023/11/16 04:16:52;;;;;;;4.20;2.20;;;6.60;63.10;;;;;;5103609;28;20225;-55
2023/11/16 04:19:18;;;;;;;2.10;1.90;;;6.60;63.50;;;;;;5105234;28;20686;-56
2023/11/16 04:21:45;;;;;;;5.30;2.30;;;6.60;63.20;;;;;;5103217;28;20660;-54
2023/11/16 04:24:12;;;;;;;4.27;2.10;;;6.60;63.10;;;;;;5113659;28;20205;-57
2023/11/16 04:26:38;;;;;;;2.27;2.07;;;6.60;63.40;;;;;;5097811;28;20707;-56
2023/11/16 04:29:05;;;;;;;2.67;2.00;;;6.60;62.90;;;;;;5102860;28;20643;-55
2023/11/16 04:31:31;;;;;;;3.13;2.10;;;6.60;62.70;;;;;;5107451;28;20219;-56
2023/11/16 04:33:58;;;;;;;2.80;1.93;;;6.60;62.80;;;;;;5113613;28;20204;-53
2023/11/16 04:36:24;;;;;;;3.73;2.07;;;6.70;62.60;;;;;;5111713;28;20232;-57
2023/11/16 04:38:51;;;;;;;4.57;2.07;;;6.60;62.40;;;;;;5110752;28;20580;-55
2023/11/16 04:41:18;;;;;;;2.97;2.03;;;6.60;62.50;;;;;;5106772;28;20198;-57
2023/11/16 04:43:45;;;;;;;2.27;1.90;;;6.60;62.70;;;;;;5108825;27;20205;-53
2023/11/16 04:46:11;;;;;;;5.10;2.77;;;6.60;62.90;;;;;;5108296;28;20269;-56
2023/11/16 04:48:39;;;;;;;2.33;2.13;;;6.60;62.70;;;;;;5100081;28;20197;-55
2023/11/16 04:51:07;;;;;;;2.60;1.90;;;6.60;62.60;;;;;;5107729;28;20204;-56
2023/11/16 04:53:34;;;;;;;2.17;2.00;;;6.60;62.90;;;;;;5113108;28;20204;-53
2023/11/16 04:56:00;;;;;;;3.33;2.30;;;6.60;63.10;;;;;;5104501;28;20256;-57
2023/11/16 04:58:27;;;;;;;3.13;2.03;;;6.60;63.50;;;;;;5104584;28;20222;-57
2023/11/16 05:00:54;;;;;;;4.53;3.07;;;6.50;63.40;;;;;;5107390;28;20209;-57
2023/11/16 05:03:21;;;;;;;2.50;2.40;;;6.50;63.70;;;;;;5108802;28;20295;-58
2023/11/16 05:05:48;;;;;;;2.40;2.20;;;6.50;63.80;;;;;;5103428;28;20232;-52
2023/11/16 05:08:14;;;;;;;4.10;2.10;;;6.50;63.30;;;;;;5098836;28;20284;-56
2023/11/16 05:10:41;;;;;;;4.67;2.20;;;6.50;63.50;;;;;;5094213;28;20232;-57
2023/11/16 05:13:07;;;;;;;5.07;2.40;;;6.50;63.30;;;;;;5112545;28;20210;-56
2023/11/16 05:15:33;;;;;;;6.20;2.50;;;6.50;63.20;;;;;;5110915;28;20232;-54
2023/11/16 05:18:01;;;;;;;3.53;2.37;;;6.50;63.20;;;;;;5104172;28;20260;-58
2023/11/16 05:20:27;;;;;;;4.27;2.67;;;6.40;63.40;;;;;;5097949;28;20309;-54
2023/11/16 05:22:54;;;;;;;4.40;2.50;;;6.40;63.60;;;;;;5106744;28;20287;-58
2023/11/16 05:25:20;;;;;;;4.07;2.27;;;6.40;64.00;;;;;;5111330;28;20313;-58
2023/11/16 05:27:47;;;;;;;2.60;2.30;;;6.30;64.20;;;;;;5100131;28;20682;-56
2023/11/16 05:30:13;;;;;;;6.50;3.10;;;6.20;65.30;;;;;;5102076;28;20212;-57
2023/11/16 05:32:40;;;;;;;8.43;3.10;;;6.30;64.80;;;;;;5112369;28;20589;-59
2023/11/16 05:35:06;;;;;;;4.13;2.57;;;6.30;64.80;;;;;;5111271;28;20286;-54
2023/11/16 05:37:33;;;;;;;3.10;2.63;;;6.30;64.80;;;;;;5101025;28;20730;-57
2023/11/16 05:40:03;;;;;;;6.30;2.80;;;6.30;64.70;;;;;;5108187;28;20752;-55
2023/11/16 05:42:30;;;;;;;4.80;2.60;;;6.20;64.70;;;;;;5110010;28;20245;-55
2023/11/16 05:44:57;;;;;;;4.07;3.30;;;6.20;64.70;;;;;;5104483;28;20710;-54
2023/11/16 05:47:24;;;;;;;3.10;2.20;;;6.20;64.70;;;;;;5095601;28;20804;-55
2023/11/16 05:49:50;;;;;;;2.23;2.00;;;6.10;65.00;;;;;;5107973;28;20268;-55
2023/11/16 05:52:17;;;;;;;3.60;2.60;;;6.10;65.50;;;;;;5103108;28;20238;-53
2023/11/16 05:54:43;;;;;;;2.33;2.13;;;6.10;65.40;;;;;;5103973;28;20302;-57
2023/11/16 05:57:10;;;;;;;3.10;2.37;;;6.10;65.10;;;;;;5106451;28;20290;-55
2023/11/16 05:59:36;;;;;;;4.93;2.40;;;6.10;65.10;;;;;;5097184;28;20884;-57
2023/11/16 06:02:03;;;;;;;2.57;2.33;;;6.10;65.20;;;;;;5108474;28;20689;-56
2023/11/16 06:04:29;;;;;;;7.33;3.47;;;6.10;65.30;;;;;;5111582;28;20207;-56
2023/11/16 06:06:56;;;;;;;4.27;3.23;;;6.10;65.00;;;;;;5099428;28;20212;-57
2023/11/16 06:09:22;;;;;;;6.17;3.50;;;6.10;65.20;;;;;;5106341;28;20206;-56
2023/11/16 06:11:48;;;;;;;8.30;2.70;;;6.00;65.20;;;;;;5093291;28;20201;-57
2023/11/16 06:14:16;;;;;;;3.20;2.90;;;6.00;65.80;;;;;;5097455;28;20202;-56
2023/11/16 06:16:44;;;;;;;2.93;2.60;;;6.00;66.10;;;;;;5091602;28;20263;-55
2023/11/16 06:19:10;;;;;;;4.87;2.57;;;5.90;66.00;;;;;;5086972;28;20229;-57
2023/11/16 06:21:37;;;;;;;3.50;2.50;;;5.90;66.50;;;;;;5093906;28;20212;-54
2023/11/16 06:24:03;;;;;;;4.13;2.70;;;5.90;66.20;;;;;;5088233;28;20204;-57
2023/11/16 06:26:31;;;;;;;3.10;2.37;;;5.90;66.10;;;;;;5088664;28;20241;-57
2023/11/16 06:28:57;;;;;;;3.70;2.97;;;5.80;66.00;;;;;;5099147;27;20209;-56
2023/11/16 06:31:24;;;;;;;3.47;2.53;;;5.90;66.30;;;;;;5110172;28;20205;-58
2023/11/16 06:33:50;;;;;;;4.30;3.00;;;5.90;66.20;;;;;;5102057;28;20218;-55
2023/11/16 06:36:17;;;;;;;5.50;3.20;;;5.90;66.00;;;;;;5107225;28;20312;-56
2023/11/16 06:38:43;;;;;;;3.97;2.90;;;5.90;66.20;;;;;;5107288;28;20223;-56
2023/11/16 06:41:10;;;;;;;6.37;2.63;;;5.90;66.20;;;;;;5106320;28;20197;-56
2023/11/16 06:43:36;;;;;;;3.17;2.87;;;5.90;65.70;;;;;;5095322;28;20200;-56
2023/11/16 06:46:03;;;;;;;6.77;2.90;;;6.00;65.80;;;;;;5109222;28;20312;-53
2023/11/16 06:48:30;;;;;;;6.00;2.57;;;6.00;65.70;;;;;;5112857;28;20232;-54
2023/11/16 06:50:58;;;;;;;4.93;3.07;;;6.00;65.70;;;;;;5102714;28;20248;-55
2023/11/16 06:53:26;;;;;;;3.90;3.03;;;6.00;65.50;;;;;;5096855;28;20592;-53
2023/11/16 06:55:53;;;;;;;5.90;4.10;;;6.10;65.30;;;;;;5092721;28;20235;-55
2023/11/16 06:58:22;;;;;;;3.60;2.73;;;6.20;65.30;;;;;;5102624;28;20225;-54
2023/11/16 07:00:50;;;;;;;3.83;2.57;;;6.20;65.50;;;;;;5103111;28;20205;-53
2023/11/16 07:03:16;;;;;;;7.67;2.77;;;6.10;65.20;;;;;;5098046;28;20630;-58
2023/11/16 07:05:43;;;;;;;4.60;2.93;;;6.20;65.10;;;;;;5106661;28;20314;-53
2023/11/16 07:08:09;;;;;;;3.73;2.40;;;6.20;65.20;;;;;;5102163;27;20233;-54
2023/11/16 07:10:36;;;;;;;6.33;3.43;;;6.20;64.70;;;;;;5089579;28;20291;-54
2023/11/16 07:13:03;;;;;;;2.43;2.00;;;6.20;65.20;;;;;;5083333;27;20308;-54
2023/11/16 07:15:32;;;;;;;5.80;3.00;;;6.20;64.70;;;;;;5100014;28;20226;-58
2023/11/16 07:17:58;;;;;;;5.70;2.80;;;6.30;64.80;;;;;;5100863;28;20216;-55
2023/11/16 07:20:25;;;;;;;4.00;2.43;;;6.40;65.10;;;;;;5103290;28;20302;-52
2023/11/16 07:22:51;;;;;;;2.80;2.40;;;6.40;64.60;;;;;;5105520;28;20200;-57
2023/11/16 07:25:20;;;;;;;3.63;2.10;;;6.50;63.80;;;;;;5109299;28;20220;-53
2023/11/16 07:27:47;;;;;;;4.23;2.83;;;6.50;63.40;;;;;;5113213;28;20575;-53
2023/11/16 07:30:13;;;;;;;3.73;2.50;;;6.50;63.20;;;;;;5101570;28;20291;-55
2023/11/16 07:32:40;;;;;;;5.67;2.73;;;6.60;63.30;;;;;;5101067;28;20263;-55
2023/11/16 07:35:14;;;;;;;4.80;2.90;;;6.70;62.30;;;;;;5109621;28;20313;-53
2023/11/16 07:37:41;;;;;;;4.77;2.70;;;6.80;62.20;;;;;;5109249;28;20600;-52
2023/11/16 07:40:09;;;;;;;3.30;2.40;;;7.00;62.10;;;;;;5097009;28;20644;-52
2023/11/16 07:42:36;;;;;;;5.10;2.80;;;7.10;61.30;;;;;;5098976;28;20206;-52
2023/11/16 07:45:03;;;;;;;4.80;2.77;;;7.20;61.40;;;;;;5109050;28;20310;-55
2023/11/16 07:47:29;;;;;;;3.67;2.47;;;7.30;60.80;;;;;;5095190;28;20285;-54
2023/11/16 07:49:56;;;;;;;4.70;3.10;;;7.20;60.50;;;;;;5101805;28;20533;-60
2023/11/16 07:52:22;;;;;;;5.00;3.00;;;7.30;60.00;;;;;;5097695;27;20699;-53
2023/11/16 07:54:49;;;;;;;4.03;2.80;;;7.20;59.90;;;;;;5097251;27;20738;-51
2023/11/16 07:57:22;;;;;;;3.33;2.50;;;7.20;59.50;;;;;;5100021;28;20269;-56
2023/11/16 07:59:48;;;;;;;4.00;2.60;;;7.40;60.30;;;;;;5113261;28;20237;-54
2023/11/16 08:02:25;;;;;;;3.83;2.47;;;7.60;60.30;;;;;;5113453;28;20211;-54
2023/11/16 08:04:50;;;;;;;4.17;2.43;;;7.70;59.10;;;;;;5107537;28;20306;-51
2023/11/16 08:07:23;;;;;;;4.07;1.93;;;7.90;58.60;;;;;;5113578;28;20265;-57
2023/11/16 08:09:50;;;;;;;2.57;2.37;;;7.90;57.10;;;;;;5112092;28;20219;-57
2023/11/16 08:12:17;;;;;;;3.43;2.67;;;7.90;57.60;;;;;;5098892;27;20345;-56
2023/11/16 08:14:44;;;;;;;5.03;2.40;;;8.00;57.20;;;;;;5108721;28;20585;-55
2023/11/16 08:17:16;;;;;;;3.77;1.97;;;8.20;57.30;;;;;;5113188;28;20570;-56
2023/11/16 08:19:42;;;;;;;3.30;2.03;;;8.40;56.10;;;;;;5113424;28;20231;-55
2023/11/16 08:22:09;;;;;;;1.90;1.50;;;8.60;55.20;;;;;;5097436;28;20216;-56
2023/11/16 08:24:35;;;;;;;1.97;1.87;;;8.90;53.40;;;;;;5107504;28;20584;-49
2023/11/16 08:27:10;;;;;;;1.83;1.70;;;9.00;52.70;;;;;;5110335;28;20216;-51
2023/11/16 08:29:37;;;;;;;1.80;1.70;;;9.40;51.60;;;;;;5101382;28;20205;-50
2023/11/16 08:32:04;;;;;;;2.63;1.90;;;9.10;51.80;;;;;;5113095;28;20238;-53
2023/11/16 08:34:31;;;;;;;4.03;2.13;;;9.00;52.20;;;;;;5113013;28;20305;-52
2023/11/16 08:36:57;;;;;;;2.17;1.70;;;8.90;51.70;;;;;;5111964;28;20618;-53
2023/11/16 08:39:26;;;;;;;2.97;1.90;;;8.70;52.60;;;;;;5099889;28;20591;-52
2023/11/16 08:41:53;;;;;;;3.27;1.50;;;8.70;52.60;;;;;;5111922;28;20274;-54
2023/11/16 08:44:19;;;;;;;3.97;2.27;;;8.50;52.10;;;;;;5103119;28;20664;-50
2023/11/16 08:46:45;;;;;;;2.83;1.70;;;8.60;53.20;;;;;;5109739;28;20262;-53
2023/11/16 08:49:12;;;;;;;3.30;1.83;;;8.60;53.30;;;;;;5113222;28;20203;-53
2023/11/16 08:51:38;;;;;;;2.07;1.80;;;8.60;52.50;;;;;;5108599;28;20724;-50
2023/11/16 08:54:07;;;;;;;2.20;2.00;;;8.60;52.80;;;;;;5107569;28;20581;-54
2023/11/16 08:56:35;;;;;;;3.70;2.27;;;8.70;53.00;;;;;;5098042;28;20233;-52
2023/11/16 08:59:03;;;;;;;2.37;1.70;;;8.60;52.40;;;;;;5099166;28;20229;-52
2023/11/16 09:01:30;;;;;;;2.23;2.10;;;8.50;52.30;;;;;;5103607;28;20270;-51
2023/11/16 09:03:57;;;;;;;2.00;1.80;;;8.50;53.20;;;;;;5104168;28;20236;-54
2023/11/16 09:06:24;;;;;;;3.73;2.20;;;8.60;53.30;;;;;;5110122;28;20595;-51
2023/11/16 09:08:50;;;;;;;3.00;1.80;;;8.60;52.50;;;;;;5110156;28;20204;-56
2023/11/16 09:11:22;;;;;;;2.07;1.90;;;8.60;52.30;;;;;;5104957;28;20262;-55
2023/11/16 09:13:48;;;;;;;1.97;1.70;;;8.50;52.20;;;;;;5101557;27;20299;-56
2023/11/16 09:16:15;;;;;;;4.17;2.30;;;8.60;52.40;;;;;;5097482;27;20232;-51
2023/11/16 09:18:42;;;;;;;2.33;1.97;;;8.60;52.40;;;;;;5105983;28;20255;-55
2023/11/16 09:21:09;;;;;;;2.60;2.03;;;8.60;52.80;;;;;;5103308;27;20208;-54
2023/11/16 09:23:35;;;;;;;2.60;2.17;;;8.60;52.80;;;;;;5101871;28;20208;-52
2023/11/16 09:26:02;;;;;;;4.37;1.80;;;8.70;52.40;;;;;;5104833;28;20229;-52
2023/11/16 09:28:30;;;;;;;5.17;2.00;;;8.70;52.50;;;;;;5104293;28;20212;-52
2023/11/16 09:30:58;;;;;;;2.63;2.07;;;8.70;52.30;;;;;;5103753;28;20204;-52
2023/11/16 09:33:24;;;;;;;2.97;1.80;;;8.70;51.90;;;;;;5108201;28;20242;-53
2023/11/16 09:35:53;;;;;;;3.47;2.10;;;8.80;51.80;;;;;;5105747;28;20225;-51
2023/11/16 09:38:19;;;;;;;3.83;2.23;;;8.80;51.90;;;;;;5110151;28;20252;-54
2023/11/16 09:40:47;;;;;;;3.93;2.10;;;8.90;51.80;;;;;;5097332;28;20204;-56
2023/11/16 09:43:20;;;;;;;1.80;1.60;;;8.80;51.60;;;;;;5104279;28;20211;-51
2023/11/16 09:45:48;;;;;;;2.60;1.90;;;8.80;51.90;;;;;;5109016;28;20233;-55
2023/11/16 09:48:15;;;;;;;2.10;1.80;;;8.80;51.80;;;;;;5109240;28;20268;-51
2023/11/16 09:50:44;;;;;;;2.83;1.70;;;8.70;51.70;;;;;;5112126;28;20273;-53
2023/11/16 09:53:13;;;;;;;3.13;2.07;;;8.80;52.20;;;;;;5098676;28;20611;-52
2023/11/16 09:55:40;;;;;;;2.93;2.10;;;8.90;51.40;;;;;;5104696;28;20232;-53
2023/11/16 09:58:09;;;;;;;4.40;2.10;;;9.00;51.30;;;;;;5096937;28;20655;-54
2023/11/16 10:00:36;;;;;;;3.43;1.73;;;9.00;50.90;;;;;;5105638;28;20256;-53
2023/11/16 10:03:05;;;;;;;5.67;2.30;;;9.10;50.80;;;;;;5111449;28;20212;-53
2023/11/16 10:05:35;;;;;;;2.73;1.97;;;9.40;51.30;;;;;;5105442;28;20265;-52
2023/11/16 10:08:08;;;;;;;2.33;2.13;;;9.60;51.30;;;;;;5111625;28;20741;-53
2023/11/16 10:10:34;;;;;;;2.77;1.60;;;9.80;49.90;;;;;;5107190;28;20263;-51
2023/11/16 10:13:01;;;;;;;3.70;1.80;;;9.70;49.20;;;;;;5109808;28;20218;-52
2023/11/16 10:15:30;;;;;;;2.07;1.90;;;9.70;49.40;;;;;;5097088;28;20227;-54
2023/11/16 10:17:56;;;;;;;2.43;2.20;;;9.80;49.10;;;;;;5101487;28;20225;-56
2023/11/16 10:20:23;;;;;;;5.43;1.60;;;9.90;48.90;;;;;;5110662;28;20227;-52
2023/11/16 10:22:50;;;;;;;2.90;2.00;;;10.00;47.40;;;;;;5099743;28;20204;-54
2023/11/16 10:25:17;;;;;;;3.03;1.53;;;10.10;47.10;;;;;;5082438;28;21514;-49
2023/11/16 10:27:44;;;;;;;2.00;1.70;;;10.30;47.20;;;;;;5087613;28;20207;-55
2023/11/16 10:30:12;;;;;;;2.67;1.70;;;10.40;46.90;;;;;;5082039;28;21231;-54
2023/11/16 10:32:38;;;;;;;3.53;1.90;;;10.60;46.10;;;;;;5078539;28;20204;-57
2023/11/16 10:35:08;;;;;;;2.43;1.70;;;10.80;46.10;;;;;;5073352;28;20337;-51
2023/11/16 10:37:34;;;;;;;2.60;1.80;;;10.70;45.50;;;;;;5071498;28;20209;-53
2023/11/16 10:40:01;;;;;;;5.57;2.10;;;10.60;46.00;;;;;;5074914;28;20232;-51
2023/11/16 10:42:27;;;;;;;2.53;1.70;;;10.60;47.10;;;;;;5072787;28;20332;-53
2023/11/16 10:44:53;;;;;;;3.47;1.70;;;10.50;46.60;;;;;;5068824;28;20937;-51
2023/11/16 10:47:20;;;;;;;2.10;1.90;;;10.60;47.20;;;;;;5075926;28;20334;-54
2023/11/16 10:49:48;;;;;;;6.07;1.97;;;10.50;47.10;;;;;;5070061;28;20220;-52
2023/11/16 10:52:15;;;;;;;1.60;1.50;;;10.30;46.20;;;;;;5072024;28;20667;-51
2023/11/16 10:54:41;;;;;;;3.10;2.43;;;10.20;46.90;;;;;;5099289;28;20282;-53
2023/11/16 10:57:09;;;;;;;2.63;2.20;;;10.10;47.30;;;;;;5073012;28;20268;-54
2023/11/16 10:59:37;;;;;;;2.17;1.60;;;10.00;48.60;;;;;;5080254;28;20236;-54
2023/11/16 11:02:10;;;;;;;1.93;1.80;;;10.00;48.00;;;;;;5069741;28;20921;-54
2023/11/16 11:04:37;;;;;;;3.63;1.67;;;10.00;47.80;;;;;;5077227;28;20228;-50
2023/11/16 11:07:04;;;;;;;3.43;1.80;;;10.00;47.80;;;;;;5084424;28;20571;-53
2023/11/16 11:09:31;;;;;;;2.23;1.77;;;10.00;48.50;;;;;;5079729;28;20199;-56
2023/11/16 11:12:02;;;;;;;1.80;1.60;;;10.00;47.70;;;;;;5074606;28;20308;-54
2023/11/16 11:14:29;;;;;;;2.17;1.67;;;10.00;47.10;;;;;;5082158;28;20673;-53
2023/11/16 11:16:56;;;;;;;4.43;1.90;;;10.00;47.80;;;;;;5104048;27;20221;-54
2023/11/16 11:19:22;;;;;;;1.90;1.67;;;10.00;47.20;;;;;;5098815;28;20323;-51
2023/11/16 11:21:50;;;;;;;4.07;1.90;;;10.10;47.80;;;;;;5072013;28;20249;-54
2023/11/16 11:24:16;;;;;;;2.13;1.63;;;10.10;47.30;;;;;;5085464;27;20207;-53
2023/11/16 11:26:43;;;;;;;2.63;1.87;;;10.20;48.00;;;;;;5077157;28;20218;-56
2023/11/16 11:29:10;;;;;;;4.27;1.90;;;10.20;48.10;;;;;;5078298;28;20787;-50
2023/11/16 11:31:37;;;;;;;1.80;1.70;;;10.30;48.00;;;;;;5076043;27;20214;-56
2023/11/16 11:34:10;;;;;;;2.77;2.30;;;10.30;48.70;;;;;;5082239;28;20302;-55
2023/11/16 11:36:38;;;;;;;2.73;2.20;;;10.20;47.70;;;;;;5084157;27;20317;-53
2023/11/16 11:39:05;;;;;;;2.23;2.03;;;10.20;48.20;;;;;;5082949;27;20302;-53
2023/11/16 11:41:31;;;;;;;3.60;2.07;;;10.10;48.00;;;;;;5082529;28;20265;-55
2023/11/16 11:44:04;;;;;;;3.97;1.80;;;10.10;47.50;;;;;;5060694;27;20222;-53
2023/11/16 11:46:33;;;;;;;4.13;2.33;;;10.10;47.60;;;;;;5059871;28;20392;-55
2023/11/16 11:48:59;;;;;;;5.80;2.00;;;9.90;47.80;;;;;;5075244;28;20963;-51
2023/11/16 11:51:28;;;;;;;3.70;2.20;;;9.90;48.40;;;;;;5087813;28;20218;-54
2023/11/16 11:53:54;;;;;;;4.90;1.87;;;9.90;48.80;;;;;;5080891;27;20214;-52
2023/11/16 11:56:21;;;;;;;3.23;2.70;;;9.90;48.20;;;;;;5074330;27;20570;-54
2023/11/16 11:58:47;;;;;;;2.60;2.20;;;9.90;48.00;;;;;;5090775;28;20216;-49
2023/11/16 12:01:14;;;;;;;2.83;2.00;;;9.90;48.50;;;;;;5104551;28;20209;-54
2023/11/16 12:03:40;;;;;;;2.40;2.10;;;9.80;48.80;;;;;;5108535;28;20221;-53
2023/11/16 12:06:08;;;;;;;3.43;2.37;;;9.80;48.70;;;;;;5096899;28;20282;-53
2023/11/16 12:08:34;;;;;;;3.10;1.87;;;9.70;48.50;;;;;;5107646;28;20216;-55
2023/11/16 12:11:01;;;;;;;2.20;1.90;;;9.70;48.60;;;;;;5105562;28;20502;-52
2023/11/16 12:13:27;;;;;;;2.20;2.00;;;9.80;48.90;;;;;;5103550;28;20318;-51
2023/11/16 12:15:54;;;;;;;2.13;1.90;;;9.80;48.60;;;;;;5109755;28;20265;-52
2023/11/16 12:18:21;;;;;;;5.33;2.17;;;9.70;47.30;;;;;;5110614;28;20206;-53
2023/11/16 12:20:48;;;;;;;3.10;1.83;;;9.70;47.90;;;;;;5097446;28;20217;-55
2023/11/16 12:23:14;;;;;;;2.53;1.90;;;9.60;48.20;;;;;;5077997;28;20648;-55
2023/11/16 12:25:42;;;;;;;3.27;2.10;;;9.60;48.10;;;;;;5108163;28;20673;-52
2023/11/16 12:28:08;;;;;;;2.83;2.53;;;9.60;48.20;;;;;;5102646;28;20302;-54
2023/11/16 12:30:35;;;;;;;4.17;1.73;;;9.60;48.50;;;;;;5106815;28;20244;-55
2023/11/16 12:33:01;;;;;;;2.77;1.90;;;9.60;48.40;;;;;;5109583;28;20577;-50
2023/11/16 12:35:28;;;;;;;3.67;1.90;;;9.70;48.70;;;;;;5091096;28;20242;-54
2023/11/16 12:37:55;;;;;;;3.43;2.33;;;9.60;48.70;;;;;;5095440;28;22785;-56
2023/11/16 12:40:21;;;;;;;2.57;2.07;;;9.60;48.80;;;;;;5088181;27;20707;-55
2023/11/16 12:42:48;;;;;;;2.77;1.80;;;9.50;48.40;;;;;;5090440;28;20672;-54
2023/11/16 12:45:14;;;;;;;2.60;2.03;;;9.50;48.10;;;;;;5091133;28;20227;-51
2023/11/16 12:47:41;;;;;;;2.00;1.90;;;9.60;48.60;;;;;;5085936;28;20207;-52
2023/11/16 12:50:07;;;;;;;1.90;1.80;;;9.50;48.80;;;;;;5089983;28;20266;-52
2023/11/16 12:52:34;;;;;;;5.53;2.27;;;9.60;48.60;;;;;;5089880;28;20295;-52
2023/11/16 12:55:01;;;;;;;2.37;1.90;;;9.60;48.60;;;;;;5090344;28;20312;-52